sensor_id;sensor_type;location;lat;lon;timestamp;temperature;humidity
15426;DHT22;7812;50.072;7.036;2023-11-19T00:00:46;9.90;99.90
15426;DHT22;7812;50.072;7.036;2023-11-19T00:03:12;9.90;99.90
15426;DHT22;7812;50.072;7.036;2023-11-19T00:05:39;10.00;99.90
15426;DHT22;7812;50.072;7.036;2023-11-19T00:08:04;9.90;99.90
15426;DHT22;7812;50.072;7.036;2023-11-19T00:10:31;9.90;99.90
15426;DHT22;7812;50.072;7.036;2023-11-19T00:12:57;9.90;99.90
15426;DHT22;7812;50.072;7.036;2023-11-19T00:15:23;9.90;99.90
15426;DHT22;7812;50.072;7.036;2023-11-19T00:17:49;10.00;99.90
15426;DHT22;7812;50.072;7.036;2023-11-19T00:20:19;10.10;99.90
15426;DHT22;7812;50.072;7.036;2023-11-19T00:22:47;10.10;99.90
15426;DHT22;7812;50.072;7.036;2023-11-19T00:25:20;10.10;99.90
15426;DHT22;7812;50.072;7.036;2023-11-19T00:27:46;10.20;99.90
15426;DHT22;7812;50.072;7.036;2023-11-19T00:30:13;10.10;99.90
15426;DHT22;7812;50.072;7.036;2023-11-19T00:32:40;10.10;99.90
15426;DHT22;7812;50.072;7.036;2023-11-19T00:35:06;10.20;99.90
15426;DHT22;7812;50.072;7.036;2023-11-19T00:37:33;10.20;99.90
15426;DHT22;7812;50.072;7.036;2023-11-19T00:39:58;10.20;99.90
15426;DHT22;7812;50.072;7.036;2023-11-19T00:42:24;10.20;99.90
15426;DHT22;7812;50.072;7.036;2023-11-19T00:44:51;10.30;99.90
15426;DHT22;7812;50.072;7.036;2023-11-19T00:47:17;10.30;99.90
15426;DHT22;7812;50.072;7.036;2023-11-19T00:49:43;10.30;99.90
15426;DHT22;7812;50.072;7.036;2023-11-19T00:52:08;10.40;99.90
15426;DHT22;7812;50.072;7.036;2023-11-19T00:54:34;10.30;99.90
15426;DHT22;7812;50.072;7.036;2023-11-19T00:57:00;10.40;99.90
15426;DHT22;7812;50.072;7.036;2023-11-19T00:59:27;10.40;99.90
15426;DHT22;7812;50.072;7.036;2023-11-19T01:01:54;10.30;99.90
15426;DHT22;7812;50.072;7.036;2023-11-19T01:04:19;10.30;99.90
15426;DHT22;7812;50.072;7.036;2023-11-19T01:06:45;10.30;99.90
15426;DHT22;7812;50.072;7.036;2023-11-19T01:09:11;10.30;99.90
15426;DHT22;7812;50.072;7.036;2023-11-19T01:11:36;10.30;99.90
15426;DHT22;7812;50.072;7.036;2023-11-19T01:14:02;10.30;99.90
15426;DHT22;7812;50.072;7.036;2023-11-19T01:16:28;10.30;99.90
15426;DHT22;7812;50.072;7.036;2023-11-19T01:18:54;10.40;99.90
15426;DHT22;7812;50.072;7.036;2023-11-19T01:21:20;10.40;99.90
15426;DHT22;7812;50.072;7.036;2023-11-19T01:23:45;10.50;99.90
15426;DHT22;7812;50.072;7.036;2023-11-19T01:26:12;10.50;99.90
15426;DHT22;7812;50.072;7.036;2023-11-19T01:28:39;10.50;99.90
15426;DHT22;7812;50.072;7.036;2023-11-19T01:31:11;10.50;99.90
15426;DHT22;7812;50.072;7.036;2023-11-19T01:33:38;10.50;99.90
15426;DHT22;7812;50.072;7.036;2023-11-19T01:36:04;10.50;99.90
15426;DHT22;7812;50.072;7.036;2023-11-19T01:38:30;10.60;99.90
15426;DHT22;7812;50.072;7.036;2023-11-19T01:40:57;10.60;99.90
15426;DHT22;7812;50.072;7.036;2023-11-19T01:43:33;10.50;99.90
15426;DHT22;7812;50.072;7.036;2023-11-19T01:45:59;10.50;99.90
15426;DHT22;7812;50.072;7.036;2023-11-19T01:48:25;10.50;99.90
15426;DHT22;7812;50.072;7.036;2023-11-19T01:50:52;10.50;99.90
15426;DHT22;7812;50.072;7.036;2023-11-19T01:53:18;10.50;99.90
15426;DHT22;7812;50.072;7.036;2023-11-19T01:55:46;10.50;99.90
15426;DHT22;7812;50.072;7.036;2023-11-19T01:58:13;10.50;99.90
15426;DHT22;7812;50.072;7.036;2023-11-19T02:00:38;10.60;99.90
15426;DHT22;7812;50.072;7.036;2023-11-19T02:03:06;10.60;99.90
15426;DHT22;7812;50.072;7.036;2023-11-19T02:05:34;10.60;99.90
15426;DHT22;7812;50.072;7.036;2023-11-19T02:08:01;10.60;99.90
15426;DHT22;7812;50.072;7.036;2023-11-19T02:10:27;10.60;99.90
15426;DHT22;7812;50.072;7.036;2023-11-19T02:12:52;10.60;99.90
15426;DHT22;7812;50.072;7.036;2023-11-19T02:15:18;10.60;99.90
15426;DHT22;7812;50.072;7.036;2023-11-19T02:17:45;10.60;99.90
15426;DHT22;7812;50.072;7.036;2023-11-19T02:20:10;10.50;99.90
15426;DHT22;7812;50.072;7.036;2023-11-19T02:22:41;10.60;99.90
15426;DHT22;7812;50.072;7.036;2023-11-19T02:25:20;10.50;99.90
15426;DHT22;7812;50.072;7.036;2023-11-19T02:27:57;10.60;99.90
15426;DHT22;7812;50.072;7.036;2023-11-19T02:30:25;10.60;99.90
15426;DHT22;7812;50.072;7.036;2023-11-19T02:32:52;10.70;99.90
15426;DHT22;7812;50.072;7.036;2023-11-19T02:35:19;10.70;99.90
15426;DHT22;7812;50.072;7.036;2023-11-19T02:37:47;10.80;99.90
15426;DHT22;7812;50.072;7.036;2023-11-19T02:40:13;10.70;99.90
15426;DHT22;7812;50.072;7.036;2023-11-19T02:42:39;10.80;99.90
15426;DHT22;7812;50.072;7.036;2023-11-19T02:45:05;10.70;99.90
15426;DHT22;7812;50.072;7.036;2023-11-19T02:47:32;10.80;99.90
15426;DHT22;7812;50.072;7.036;2023-11-19T02:49:59;10.80;99.90
15426;DHT22;7812;50.072;7.036;2023-11-19T02:52:25;10.90;99.90
15426;DHT22;7812;50.072;7.036;2023-11-19T02:54:51;10.90;99.90
15426;DHT22;7812;50.072;7.036;2023-11-19T02:57:17;10.90;99.90
15426;DHT22;7812;50.072;7.036;2023-11-19T02:59:45;11.00;99.90
15426;DHT22;7812;50.072;7.036;2023-11-19T03:02:11;11.00;99.90
15426;DHT22;7812;50.072;7.036;2023-11-19T03:04:37;11.00;99.90
15426;DHT22;7812;50.072;7.036;2023-11-19T03:07:08;11.00;99.90
15426;DHT22;7812;50.072;7.036;2023-11-19T03:09:33;11.10;99.90
15426;DHT22;7812;50.072;7.036;2023-11-19T03:12:01;11.10;99.90
15426;DHT22;7812;50.072;7.036;2023-11-19T03:14:27;10.90;99.90
15426;DHT22;7812;50.072;7.036;2023-11-19T03:16:53;10.90;99.90
15426;DHT22;7812;50.072;7.036;2023-11-19T03:19:19;10.80;99.90
15426;DHT22;7812;50.072;7.036;2023-11-19T03:21:44;10.90;99.90
15426;DHT22;7812;50.072;7.036;2023-11-19T03:24:12;10.70;99.90
15426;DHT22;7812;50.072;7.036;2023-11-19T03:26:38;10.80;99.90
15426;DHT22;7812;50.072;7.036;2023-11-19T03:29:04;10.80;99.90
15426;DHT22;7812;50.072;7.036;2023-11-19T03:31:30;10.90;99.90
15426;DHT22;7812;50.072;7.036;2023-11-19T03:33:56;10.90;99.90
15426;DHT22;7812;50.072;7.036;2023-11-19T03:36:22;10.90;99.90
15426;DHT22;7812;50.072;7.036;2023-11-19T03:38:48;11.00;99.90
15426;DHT22;7812;50.072;7.036;2023-11-19T03:41:14;11.10;99.90
15426;DHT22;7812;50.072;7.036;2023-11-19T03:43:40;11.10;99.90
15426;DHT22;7812;50.072;7.036;2023-11-19T03:46:17;11.00;99.90
15426;DHT22;7812;50.072;7.036;2023-11-19T03:48:43;11.00;99.90
15426;DHT22;7812;50.072;7.036;2023-11-19T03:51:09;11.10;99.90
15426;DHT22;7812;50.072;7.036;2023-11-19T03:53:35;11.20;99.90
15426;DHT22;7812;50.072;7.036;2023-11-19T03:56:01;11.10;99.90
15426;DHT22;7812;50.072;7.036;2023-11-19T03:58:26;10.90;99.90
15426;DHT22;7812;50.072;7.036;2023-11-19T04:00:52;10.90;99.90
15426;DHT22;7812;50.072;7.036;2023-11-19T04:03:18;11.00;99.90
15426;DHT22;7812;50.072;7.036;2023-11-19T04:05:45;10.90;99.90
15426;DHT22;7812;50.072;7.036;2023-11-19T04:08:10;10.80;99.90
15426;DHT22;7812;50.072;7.036;2023-11-19T04:10:36;10.70;99.90
15426;DHT22;7812;50.072;7.036;2023-11-19T04:13:01;10.80;99.90
15426;DHT22;7812;50.072;7.036;2023-11-19T04:15:27;10.80;99.90
15426;DHT22;7812;50.072;7.036;2023-11-19T04:17:53;10.70;99.90
15426;DHT22;7812;50.072;7.036;2023-11-19T04:20:18;10.70;99.90
15426;DHT22;7812;50.072;7.036;2023-11-19T04:22:44;10.70;99.90
15426;DHT22;7812;50.072;7.036;2023-11-19T04:25:10;10.70;99.90
15426;DHT22;7812;50.072;7.036;2023-11-19T04:27:36;10.70;99.90
15426;DHT22;7812;50.072;7.036;2023-11-19T04:30:02;10.80;99.90
15426;DHT22;7812;50.072;7.036;2023-11-19T04:32:29;10.90;99.90
15426;DHT22;7812;50.072;7.036;2023-11-19T04:34:54;10.90;99.90
15426;DHT22;7812;50.072;7.036;2023-11-19T04:37:21;11.00;99.90
15426;DHT22;7812;50.072;7.036;2023-11-19T04:39:47;10.90;99.90
15426;DHT22;7812;50.072;7.036;2023-11-19T04:42:12;11.00;99.90
15426;DHT22;7812;50.072;7.036;2023-11-19T04:44:38;10.90;99.90
15426;DHT22;7812;50.072;7.036;2023-11-19T04:47:04;10.90;99.90
15426;DHT22;7812;50.072;7.036;2023-11-19T04:49:29;10.90;99.90
15426;DHT22;7812;50.072;7.036;2023-11-19T04:51:56;10.90;99.90
15426;DHT22;7812;50.072;7.036;2023-11-19T04:54:21;10.70;99.90
15426;DHT22;7812;50.072;7.036;2023-11-19T04:56:47;10.80;99.90
15426;DHT22;7812;50.072;7.036;2023-11-19T04:59:13;10.80;99.90
15426;DHT22;7812;50.072;7.036;2023-11-19T05:01:39;10.90;99.90
15426;DHT22;7812;50.072;7.036;2023-11-19T05:04:04;10.90;99.90
15426;DHT22;7812;50.072;7.036;2023-11-19T05:06:31;10.90;99.90
15426;DHT22;7812;50.072;7.036;2023-11-19T05:08:58;10.90;99.90
15426;DHT22;7812;50.072;7.036;2023-11-19T05:11:26;10.90;99.90
15426;DHT22;7812;50.072;7.036;2023-11-19T05:13:53;10.90;99.90
15426;DHT22;7812;50.072;7.036;2023-11-19T05:16:19;10.90;99.90
15426;DHT22;7812;50.072;7.036;2023-11-19T05:18:46;10.90;99.90
15426;DHT22;7812;50.072;7.036;2023-11-19T05:21:12;10.80;99.90
15426;DHT22;7812;50.072;7.036;2023-11-19T05:23:38;10.80;99.90
15426;DHT22;7812;50.072;7.036;2023-11-19T05:26:04;10.90;99.90
15426;DHT22;7812;50.072;7.036;2023-11-19T05:28:30;10.90;99.90
15426;DHT22;7812;50.072;7.036;2023-11-19T05:30:56;10.90;99.90
15426;DHT22;7812;50.072;7.036;2023-11-19T05:33:22;10.90;99.90
15426;DHT22;7812;50.072;7.036;2023-11-19T05:35:47;10.70;99.90
15426;DHT22;7812;50.072;7.036;2023-11-19T05:38:13;10.80;99.90
15426;DHT22;7812;50.072;7.036;2023-11-19T05:40:40;10.80;99.90
15426;DHT22;7812;50.072;7.036;2023-11-19T05:43:06;10.80;99.90
15426;DHT22;7812;50.072;7.036;2023-11-19T05:45:32;10.80;99.90
15426;DHT22;7812;50.072;7.036;2023-11-19T05:47:58;10.60;99.90
15426;DHT22;7812;50.072;7.036;2023-11-19T05:50:23;10.60;99.90
15426;DHT22;7812;50.072;7.036;2023-11-19T05:52:49;10.60;99.90
15426;DHT22;7812;50.072;7.036;2023-11-19T05:55:15;10.70;99.90
15426;DHT22;7812;50.072;7.036;2023-11-19T05:57:41;10.70;99.90
15426;DHT22;7812;50.072;7.036;2023-11-19T06:00:07;10.60;99.90
15426;DHT22;7812;50.072;7.036;2023-11-19T06:02:34;10.70;99.90
15426;DHT22;7812;50.072;7.036;2023-11-19T06:05:00;10.80;99.90
15426;DHT22;7812;50.072;7.036;2023-11-19T06:07:27;10.90;99.90
15426;DHT22;7812;50.072;7.036;2023-11-19T06:09:53;10.80;99.90
15426;DHT22;7812;50.072;7.036;2023-11-19T06:12:18;10.90;99.90
15426;DHT22;7812;50.072;7.036;2023-11-19T06:14:45;11.00;99.90
15426;DHT22;7812;50.072;7.036;2023-11-19T06:17:11;11.10;99.90
15426;DHT22;7812;50.072;7.036;2023-11-19T06:19:37;11.10;99.90
15426;DHT22;7812;50.072;7.036;2023-11-19T06:22:03;11.20;99.90
15426;DHT22;7812;50.072;7.036;2023-11-19T06:24:29;11.20;99.90
15426;DHT22;7812;50.072;7.036;2023-11-19T06:26:55;11.10;99.90
15426;DHT22;7812;50.072;7.036;2023-11-19T06:29:21;11.10;99.90
15426;DHT22;7812;50.072;7.036;2023-11-19T06:31:46;10.90;99.90
15426;DHT22;7812;50.072;7.036;2023-11-19T06:34:14;10.80;99.90
15426;DHT22;7812;50.072;7.036;2023-11-19T06:36:40;10.90;99.90
15426;DHT22;7812;50.072;7.036;2023-11-19T06:39:06;11.00;99.90
15426;DHT22;7812;50.072;7.036;2023-11-19T06:41:31;11.00;99.90
15426;DHT22;7812;50.072;7.036;2023-11-19T06:43:57;11.00;99.90
15426;DHT22;7812;50.072;7.036;2023-11-19T06:46:23;11.00;99.90
15426;DHT22;7812;50.072;7.036;2023-11-19T06:48:48;11.00;99.90
15426;DHT22;7812;50.072;7.036;2023-11-19T06:51:15;11.10;99.90
15426;DHT22;7812;50.072;7.036;2023-11-19T06:53:43;11.20;99.90
15426;DHT22;7812;50.072;7.036;2023-11-19T06:56:39;11.30;99.90
15426;DHT22;7812;50.072;7.036;2023-11-19T06:59:04;11.40;99.90
15426;DHT22;7812;50.072;7.036;2023-11-19T07:01:35;11.50;99.90
15426;DHT22;7812;50.072;7.036;2023-11-19T07:04:01;11.50;99.90
15426;DHT22;7812;50.072;7.036;2023-11-19T07:06:33;11.40;99.90
15426;DHT22;7812;50.072;7.036;2023-11-19T07:09:00;11.20;99.90
15426;DHT22;7812;50.072;7.036;2023-11-19T07:11:40;11.20;99.90
15426;DHT22;7812;50.072;7.036;2023-11-19T07:14:09;11.20;99.90
15426;DHT22;7812;50.072;7.036;2023-11-19T07:16:35;11.20;99.90
15426;DHT22;7812;50.072;7.036;2023-11-19T07:19:07;11.20;99.90
15426;DHT22;7812;50.072;7.036;2023-11-19T07:21:33;11.30;99.90
15426;DHT22;7812;50.072;7.036;2023-11-19T07:23:59;11.40;99.90
15426;DHT22;7812;50.072;7.036;2023-11-19T07:26:25;11.60;99.90
15426;DHT22;7812;50.072;7.036;2023-11-19T07:28:51;11.70;99.90
15426;DHT22;7812;50.072;7.036;2023-11-19T07:31:17;11.80;99.90
15426;DHT22;7812;50.072;7.036;2023-11-19T07:33:46;11.80;99.90
15426;DHT22;7812;50.072;7.036;2023-11-19T07:36:13;11.70;99.90
15426;DHT22;7812;50.072;7.036;2023-11-19T07:38:39;11.70;99.90
15426;DHT22;7812;50.072;7.036;2023-11-19T07:41:05;11.60;99.90
15426;DHT22;7812;50.072;7.036;2023-11-19T07:43:32;11.70;99.90
15426;DHT22;7812;50.072;7.036;2023-11-19T07:46:00;11.60;99.90
15426;DHT22;7812;50.072;7.036;2023-11-19T07:48:29;11.70;99.90
15426;DHT22;7812;50.072;7.036;2023-11-19T07:50:55;11.70;99.90
15426;DHT22;7812;50.072;7.036;2023-11-19T07:53:22;11.70;99.90
15426;DHT22;7812;50.072;7.036;2023-11-19T07:55:48;11.70;99.90
15426;DHT22;7812;50.072;7.036;2023-11-19T07:58:13;11.70;99.90
15426;DHT22;7812;50.072;7.036;2023-11-19T08:00:39;11.70;99.90
15426;DHT22;7812;50.072;7.036;2023-11-19T08:03:05;11.70;99.90
15426;DHT22;7812;50.072;7.036;2023-11-19T08:05:31;11.70;99.90
15426;DHT22;7812;50.072;7.036;2023-11-19T08:07:57;11.70;99.90
15426;DHT22;7812;50.072;7.036;2023-11-19T08:10:23;11.60;99.90
15426;DHT22;7812;50.072;7.036;2023-11-19T08:12:49;11.50;99.90
15426;DHT22;7812;50.072;7.036;2023-11-19T08:15:15;11.40;99.90
15426;DHT22;7812;50.072;7.036;2023-11-19T08:17:41;11.40;99.90
15426;DHT22;7812;50.072;7.036;2023-11-19T08:20:09;11.60;99.90
15426;DHT22;7812;50.072;7.036;2023-11-19T08:22:36;12.40;99.90
15426;DHT22;7812;50.072;7.036;2023-11-19T08:25:04;13.00;99.90
15426;DHT22;7812;50.072;7.036;2023-11-19T08:27:30;14.00;99.90
15426;DHT22;7812;50.072;7.036;2023-11-19T08:29:56;15.10;99.90
15426;DHT22;7812;50.072;7.036;2023-11-19T08:32:27;15.90;99.90
15426;DHT22;7812;50.072;7.036;2023-11-19T08:34:53;16.30;99.90
15426;DHT22;7812;50.072;7.036;2023-11-19T08:37:19;16.80;99.90
15426;DHT22;7812;50.072;7.036;2023-11-19T08:39:50;16.50;99.90
15426;DHT22;7812;50.072;7.036;2023-11-19T08:42:16;16.90;99.90
15426;DHT22;7812;50.072;7.036;2023-11-19T08:44:42;17.40;99.90
15426;DHT22;7812;50.072;7.036;2023-11-19T08:47:11;17.60;99.90
15426;DHT22;7812;50.072;7.036;2023-11-19T08:49:36;18.30;99.90
15426;DHT22;7812;50.072;7.036;2023-11-19T08:52:02;18.60;99.90
15426;DHT22;7812;50.072;7.036;2023-11-19T08:54:28;19.00;99.90
15426;DHT22;7812;50.072;7.036;2023-11-19T08:56:53;17.80;99.90
15426;DHT22;7812;50.072;7.036;2023-11-19T08:59:19;17.40;99.90
15426;DHT22;7812;50.072;7.036;2023-11-19T09:01:45;17.20;99.90
15426;DHT22;7812;50.072;7.036;2023-11-19T09:04:11;16.40;99.90
15426;DHT22;7812;50.072;7.036;2023-11-19T09:06:36;15.20;99.90
15426;DHT22;7812;50.072;7.036;2023-11-19T09:09:02;14.40;99.90
15426;DHT22;7812;50.072;7.036;2023-11-19T09:11:31;14.20;99.90
15426;DHT22;7812;50.072;7.036;2023-11-19T09:13:57;13.60;99.90
15426;DHT22;7812;50.072;7.036;2023-11-19T09:16:23;13.30;99.90
15426;DHT22;7812;50.072;7.036;2023-11-19T09:18:48;13.50;99.90
15426;DHT22;7812;50.072;7.036;2023-11-19T09:21:14;14.30;99.90
15426;DHT22;7812;50.072;7.036;2023-11-19T09:23:40;14.60;99.90
15426;DHT22;7812;50.072;7.036;2023-11-19T09:26:08;15.50;99.90
15426;DHT22;7812;50.072;7.036;2023-11-19T09:28:36;16.30;99.90
15426;DHT22;7812;50.072;7.036;2023-11-19T09:31:01;16.00;99.90
15426;DHT22;7812;50.072;7.036;2023-11-19T09:33:30;15.20;99.90
15426;DHT22;7812;50.072;7.036;2023-11-19T09:35:56;14.00;99.90
15426;DHT22;7812;50.072;7.036;2023-11-19T09:38:23;13.40;99.90
15426;DHT22;7812;50.072;7.036;2023-11-19T09:40:48;13.60;99.90
15426;DHT22;7812;50.072;7.036;2023-11-19T09:43:17;13.60;99.90
15426;DHT22;7812;50.072;7.036;2023-11-19T09:45:50;13.70;99.90
15426;DHT22;7812;50.072;7.036;2023-11-19T09:48:19;13.90;99.90
15426;DHT22;7812;50.072;7.036;2023-11-19T09:50:48;15.00;99.90
15426;DHT22;7812;50.072;7.036;2023-11-19T09:53:15;16.00;99.90
15426;DHT22;7812;50.072;7.036;2023-11-19T09:55:41;16.70;99.90
15426;DHT22;7812;50.072;7.036;2023-11-19T09:58:07;17.50;99.90
15426;DHT22;7812;50.072;7.036;2023-11-19T10:00:34;17.70;99.90
15426;DHT22;7812;50.072;7.036;2023-11-19T10:03:00;18.30;99.90
15426;DHT22;7812;50.072;7.036;2023-11-19T10:05:26;18.20;99.90
15426;DHT22;7812;50.072;7.036;2023-11-19T10:07:55;18.10;99.90
15426;DHT22;7812;50.072;7.036;2023-11-19T10:10:21;17.80;99.90
15426;DHT22;7812;50.072;7.036;2023-11-19T10:12:47;17.10;99.90
15426;DHT22;7812;50.072;7.036;2023-11-19T10:15:20;17.50;99.90
15426;DHT22;7812;50.072;7.036;2023-11-19T10:17:46;17.60;99.90
15426;DHT22;7812;50.072;7.036;2023-11-19T10:20:12;17.20;99.90
15426;DHT22;7812;50.072;7.036;2023-11-19T10:22:37;17.00;99.90
15426;DHT22;7812;50.072;7.036;2023-11-19T10:25:04;16.70;99.90
15426;DHT22;7812;50.072;7.036;2023-11-19T10:27:30;16.90;99.90
15426;DHT22;7812;50.072;7.036;2023-11-19T10:29:59;17.50;99.90
15426;DHT22;7812;50.072;7.036;2023-11-19T10:32:25;17.40;99.90
15426;DHT22;7812;50.072;7.036;2023-11-19T10:34:51;17.50;99.90
15426;DHT22;7812;50.072;7.036;2023-11-19T10:37:29;17.90;99.90
15426;DHT22;7812;50.072;7.036;2023-11-19T10:39:58;18.10;99.90
15426;DHT22;7812;50.072;7.036;2023-11-19T10:42:23;17.90;99.90
15426;DHT22;7812;50.072;7.036;2023-11-19T10:44:49;17.90;99.90
15426;DHT22;7812;50.072;7.036;2023-11-19T10:47:15;18.40;99.90
15426;DHT22;7812;50.072;7.036;2023-11-19T10:49:44;19.00;99.90
15426;DHT22;7812;50.072;7.036;2023-11-19T10:52:12;18.40;99.90
15426;DHT22;7812;50.072;7.036;2023-11-19T10:54:44;18.60;99.90
15426;DHT22;7812;50.072;7.036;2023-11-19T10:57:12;18.60;99.90
15426;DHT22;7812;50.072;7.036;2023-11-19T10:59:42;19.60;99.90
15426;DHT22;7812;50.072;7.036;2023-11-19T11:02:12;20.00;99.90
15426;DHT22;7812;50.072;7.036;2023-11-19T11:04:42;19.70;99.90
15426;DHT22;7812;50.072;7.036;2023-11-19T11:07:09;18.80;99.90
15426;DHT22;7812;50.072;7.036;2023-11-19T11:09:35;18.90;99.90
15426;DHT22;7812;50.072;7.036;2023-11-19T11:12:01;19.20;99.90
15426;DHT22;7812;50.072;7.036;2023-11-19T11:14:27;19.20;99.90
15426;DHT22;7812;50.072;7.036;2023-11-19T11:16:53;19.80;99.90
15426;DHT22;7812;50.072;7.036;2023-11-19T11:19:19;18.90;99.90
15426;DHT22;7812;50.072;7.036;2023-11-19T11:21:49;17.70;99.90
15426;DHT22;7812;50.072;7.036;2023-11-19T11:30:20;16.50;99.90
15426;DHT22;7812;50.072;7.036;2023-11-19T11:38:08;16.40;99.90
15426;DHT22;7812;50.072;7.036;2023-11-19T11:40:34;17.20;99.90
15426;DHT22;7812;50.072;7.036;2023-11-19T11:43:00;17.30;99.90
15426;DHT22;7812;50.072;7.036;2023-11-19T11:45:41;18.20;99.90
15426;DHT22;7812;50.072;7.036;2023-11-19T11:48:12;18.40;99.90
15426;DHT22;7812;50.072;7.036;2023-11-19T11:50:57;18.80;99.90
15426;DHT22;7812;50.072;7.036;2023-11-19T11:53:24;19.20;99.90
15426;DHT22;7812;50.072;7.036;2023-11-19T11:58:30;17.70;99.90
15426;DHT22;7812;50.072;7.036;2023-11-19T12:01:01;16.20;99.90
15426;DHT22;7812;50.072;7.036;2023-11-19T12:03:28;15.70;99.90
15426;DHT22;7812;50.072;7.036;2023-11-19T12:05:54;15.50;99.90
15426;DHT22;7812;50.072;7.036;2023-11-19T12:08:25;15.30;99.90
15426;DHT22;7812;50.072;7.036;2023-11-19T12:10:55;15.10;99.90
15426;DHT22;7812;50.072;7.036;2023-11-19T12:13:24;14.80;99.90
15426;DHT22;7812;50.072;7.036;2023-11-19T12:18:30;14.50;99.90
15426;DHT22;7812;50.072;7.036;2023-11-19T12:20:56;14.40;99.90
15426;DHT22;7812;50.072;7.036;2023-11-19T12:23:26;14.80;99.90
15426;DHT22;7812;50.072;7.036;2023-11-19T12:25:52;16.10;99.90
15426;DHT22;7812;50.072;7.036;2023-11-19T12:28:17;17.10;99.90
15426;DHT22;7812;50.072;7.036;2023-11-19T12:30:44;18.00;99.90
15426;DHT22;7812;50.072;7.036;2023-11-19T12:33:10;18.80;99.90
15426;DHT22;7812;50.072;7.036;2023-11-19T12:35:44;19.50;99.90
15426;DHT22;7812;50.072;7.036;2023-11-19T12:38:21;20.00;99.90
15426;DHT22;7812;50.072;7.036;2023-11-19T12:40:48;20.30;99.90
15426;DHT22;7812;50.072;7.036;2023-11-19T12:43:27;19.90;99.90
15426;DHT22;7812;50.072;7.036;2023-11-19T12:45:53;18.70;99.90
15426;DHT22;7812;50.072;7.036;2023-11-19T12:48:20;18.10;99.90
15426;DHT22;7812;50.072;7.036;2023-11-19T12:50:52;18.10;99.90
15426;DHT22;7812;50.072;7.036;2023-11-19T12:53:19;18.00;99.90
15426;DHT22;7812;50.072;7.036;2023-11-19T12:55:45;17.30;99.90
15426;DHT22;7812;50.072;7.036;2023-11-19T12:58:10;17.40;99.90
15426;DHT22;7812;50.072;7.036;2023-11-19T13:03:31;16.20;99.90
15426;DHT22;7812;50.072;7.036;2023-11-19T13:08:36;16.00;99.90
15426;DHT22;7812;50.072;7.036;2023-11-19T13:11:03;15.50;99.90
15426;DHT22;7812;50.072;7.036;2023-11-19T13:13:29;15.20;99.90
15426;DHT22;7812;50.072;7.036;2023-11-19T13:16:02;15.00;99.90
15426;DHT22;7812;50.072;7.036;2023-11-19T13:18:29;14.90;99.90
15426;DHT22;7812;50.072;7.036;2023-11-19T13:20:54;14.90;99.90
15426;DHT22;7812;50.072;7.036;2023-11-19T13:23:22;15.30;99.90
15426;DHT22;7812;50.072;7.036;2023-11-19T13:25:48;15.80;99.90
15426;DHT22;7812;50.072;7.036;2023-11-19T13:28:14;16.10;99.90
15426;DHT22;7812;50.072;7.036;2023-11-19T13:30:40;16.20;99.90
15426;DHT22;7812;50.072;7.036;2023-11-19T13:33:05;16.00;99.90
15426;DHT22;7812;50.072;7.036;2023-11-19T13:35:31;15.90;99.90
15426;DHT22;7812;50.072;7.036;2023-11-19T13:37:57;15.40;99.90
15426;DHT22;7812;50.072;7.036;2023-11-19T13:40:23;15.00;99.90
15426;DHT22;7812;50.072;7.036;2023-11-19T13:42:50;14.90;99.90
15426;DHT22;7812;50.072;7.036;2023-11-19T13:45:16;14.80;99.90
15426;DHT22;7812;50.072;7.036;2023-11-19T13:47:45;14.60;99.90
15426;DHT22;7812;50.072;7.036;2023-11-19T13:50:13;14.40;99.90
15426;DHT22;7812;50.072;7.036;2023-11-19T13:52:39;14.30;99.90
15426;DHT22;7812;50.072;7.036;2023-11-19T13:55:06;14.30;99.90
15426;DHT22;7812;50.072;7.036;2023-11-19T13:57:34;14.20;99.90
15426;DHT22;7812;50.072;7.036;2023-11-19T14:00:00;14.20;99.90
15426;DHT22;7812;50.072;7.036;2023-11-19T14:02:28;14.10;99.90
15426;DHT22;7812;50.072;7.036;2023-11-19T14:04:54;14.20;99.90
15426;DHT22;7812;50.072;7.036;2023-11-19T14:07:20;14.20;99.90
15426;DHT22;7812;50.072;7.036;2023-11-19T14:09:45;14.20;99.90
15426;DHT22;7812;50.072;7.036;2023-11-19T14:12:11;14.20;99.90
15426;DHT22;7812;50.072;7.036;2023-11-19T14:14:38;14.10;99.90
15426;DHT22;7812;50.072;7.036;2023-11-19T14:17:05;14.00;99.90
15426;DHT22;7812;50.072;7.036;2023-11-19T14:19:30;13.90;99.90
15426;DHT22;7812;50.072;7.036;2023-11-19T14:21:56;13.80;99.90
15426;DHT22;7812;50.072;7.036;2023-11-19T14:24:22;13.60;99.90
15426;DHT22;7812;50.072;7.036;2023-11-19T14:26:48;13.60;99.90
15426;DHT22;7812;50.072;7.036;2023-11-19T14:29:15;13.50;99.90
15426;DHT22;7812;50.072;7.036;2023-11-19T14:31:41;13.50;99.90
15426;DHT22;7812;50.072;7.036;2023-11-19T14:34:06;13.40;99.90
15426;DHT22;7812;50.072;7.036;2023-11-19T14:36:32;13.30;99.90
15426;DHT22;7812;50.072;7.036;2023-11-19T14:38:58;13.30;99.90
15426;DHT22;7812;50.072;7.036;2023-11-19T14:41:24;13.30;99.90
15426;DHT22;7812;50.072;7.036;2023-11-19T14:43:50;13.30;99.90
15426;DHT22;7812;50.072;7.036;2023-11-19T14:46:15;13.20;99.90
15426;DHT22;7812;50.072;7.036;2023-11-19T14:48:41;13.20;99.90
15426;DHT22;7812;50.072;7.036;2023-11-19T14:51:16;13.10;99.90
15426;DHT22;7812;50.072;7.036;2023-11-19T14:53:42;13.10;99.90
15426;DHT22;7812;50.072;7.036;2023-11-19T14:56:10;13.10;99.90
15426;DHT22;7812;50.072;7.036;2023-11-19T14:58:38;13.00;99.90
15426;DHT22;7812;50.072;7.036;2023-11-19T15:01:03;13.00;99.90
15426;DHT22;7812;50.072;7.036;2023-11-19T15:03:30;13.00;99.90
15426;DHT22;7812;50.072;7.036;2023-11-19T15:05:56;12.90;99.90
15426;DHT22;7812;50.072;7.036;2023-11-19T15:08:22;12.90;99.90
15426;DHT22;7812;50.072;7.036;2023-11-19T15:10:48;12.80;99.90
15426;DHT22;7812;50.072;7.036;2023-11-19T15:13:14;12.70;99.90
15426;DHT22;7812;50.072;7.036;2023-11-19T15:15:40;12.60;99.90
15426;DHT22;7812;50.072;7.036;2023-11-19T15:18:07;12.50;99.90
15426;DHT22;7812;50.072;7.036;2023-11-19T15:20:32;12.60;99.90
15426;DHT22;7812;50.072;7.036;2023-11-19T15:22:58;12.60;99.90
15426;DHT22;7812;50.072;7.036;2023-11-19T15:25:24;12.60;99.90
15426;DHT22;7812;50.072;7.036;2023-11-19T15:27:50;12.60;99.90
15426;DHT22;7812;50.072;7.036;2023-11-19T15:30:16;12.60;99.90
15426;DHT22;7812;50.072;7.036;2023-11-19T15:32:42;12.70;99.90
15426;DHT22;7812;50.072;7.036;2023-11-19T15:35:11;12.70;99.90
15426;DHT22;7812;50.072;7.036;2023-11-19T15:37:38;12.70;99.90
15426;DHT22;7812;50.072;7.036;2023-11-19T15:40:09;12.70;99.90
15426;DHT22;7812;50.072;7.036;2023-11-19T15:42:38;12.70;99.90
15426;DHT22;7812;50.072;7.036;2023-11-19T15:45:05;12.70;99.90
15426;DHT22;7812;50.072;7.036;2023-11-19T15:47:32;12.60;99.90
15426;DHT22;7812;50.072;7.036;2023-11-19T15:50:00;12.60;99.90
15426;DHT22;7812;50.072;7.036;2023-11-19T15:52:26;12.50;99.90
15426;DHT22;7812;50.072;7.036;2023-11-19T15:54:52;12.50;99.90
15426;DHT22;7812;50.072;7.036;2023-11-19T15:57:18;12.50;99.90
15426;DHT22;7812;50.072;7.036;2023-11-19T15:59:44;12.40;99.90
15426;DHT22;7812;50.072;7.036;2023-11-19T16:02:09;12.40;99.90
15426;DHT22;7812;50.072;7.036;2023-11-19T16:04:35;12.40;99.90
15426;DHT22;7812;50.072;7.036;2023-11-19T16:07:01;12.30;99.90